createdAt,value
2023-04-26T04:49:54.094Z,257.42
2023-04-26T04:50:56.152Z,213.10
2023-04-26T04:52:01.243Z,205.77
2023-04-26T04:53:04.029Z,222.52
2023-04-26T04:54:15.404Z,226.25
2023-04-26T04:55:17.889Z,218.25
2023-04-26T04:56:22.803Z,209.88
2023-04-26T04:57:24.903Z,269.23
2023-04-26T04:58:29.597Z,324.50
2023-04-26T04:59:31.717Z,296.90
2023-04-26T05:00:38.154Z,241.60
2023-04-26T05:01:40.298Z,259.17
2023-04-26T05:02:45.192Z,242.13
2023-04-26T05:03:47.414Z,223.48
2023-04-26T05:04:55.729Z,247.25
2023-04-26T05:05:57.862Z,237.48
2023-04-26T05:07:02.482Z,243.93
2023-04-26T05:08:07.778Z,200.85
2023-04-26T05:09:12.699Z,240.55
2023-04-26T05:10:15.915Z,232.55
2023-04-26T05:11:21.054Z,225.95
2023-04-26T05:12:23.856Z,219.65
2023-04-26T05:13:28.539Z,239.48
2023-04-26T05:14:30.685Z,251.68
2023-04-26T05:15:35.408Z,448.45
2023-04-26T05:16:38.597Z,277.17
2023-04-26T05:17:45.094Z,313.55
2023-04-26T05:19:18.253Z,353.77
2023-04-26T05:20:22.993Z,256.88
2023-04-26T05:21:27.633Z,254.50
2023-04-26T05:22:29.734Z,243.80
2023-04-26T05:23:34.649Z,299.63
2023-04-26T05:24:36.738Z,284.00
2023-04-26T05:25:42.137Z,268.02
2023-04-26T05:26:44.211Z,300.45
2023-04-26T05:27:48.958Z,327.65
2023-04-26T05:28:51.285Z,318.08
2023-04-26T05:29:56.014Z,437.23
2023-04-26T05:30:58.312Z,376.60
2023-04-26T05:32:03.117Z,366.63
2023-04-26T05:33:05.357Z,361.67
2023-04-26T05:34:10.098Z,337.77
2023-04-26T05:35:18.541Z,314.63
2023-04-26T05:36:29.148Z,315.90
2023-04-26T05:38:08.392Z,400.40
2023-04-26T05:39:13.240Z,323.05
2023-04-26T05:40:15.769Z,447.75
2023-04-26T05:41:20.448Z,309.02
2023-04-26T05:42:22.527Z,374.05
2023-04-26T05:43:27.206Z,282.65
2023-04-26T05:44:29.330Z,295.75
2023-04-26T05:45:34.140Z,324.77
2023-04-26T05:46:36.212Z,311.80
2023-04-26T05:47:40.942Z,284.05
2023-04-26T05:48:43.066Z,274.27
2023-04-26T05:49:47.747Z,443.35
2023-04-26T05:50:52.736Z,474.00
2023-04-26T05:51:59.706Z,262.85
2023-04-26T05:53:04.383Z,311.88
2023-04-26T05:54:06.566Z,360.92
2023-04-26T05:55:13.645Z,302.42
2023-04-26T05:56:15.902Z,225.70
2023-04-26T05:57:20.901Z,204.60
2023-04-26T05:58:25.673Z,226.18
2023-04-26T05:59:33.783Z,220.05
2023-04-26T06:00:38.884Z,227.18
2023-04-26T06:01:43.625Z,205.80
2023-04-26T06:02:47.180Z,234.07
2023-04-26T06:03:53.317Z,235.18
2023-04-26T06:05:00.216Z,187.23
2023-04-26T06:07:29.916Z,271.00
2023-04-26T06:08:36.602Z,311.08
2023-04-26T06:09:41.319Z,253.98
2023-04-26T06:11:16.221Z,271.25
2023-04-26T06:12:18.314Z,191.55
2023-04-26T06:13:23.417Z,188.40
2023-04-26T06:14:30.548Z,168.63
2023-04-26T06:15:36.001Z,186.70
2023-04-26T06:16:38.139Z,199.70
2023-04-26T06:17:43.587Z,268.23
2023-04-26T06:18:48.299Z,181.48
2023-04-26T06:19:50.557Z,206.63
2023-04-26T06:20:55.239Z,203.25
2023-04-26T06:21:57.446Z,175.73
2023-04-26T06:23:04.889Z,159.90
2023-04-26T06:24:08.961Z,207.48
2023-04-26T06:25:13.664Z,167.32
2023-04-26T06:26:15.829Z,156.20
2023-04-26T06:27:20.518Z,195.60
2023-04-26T06:28:25.251Z,157.18
2023-04-26T06:29:27.419Z,156.65
2023-04-26T06:30:32.411Z,174.13
2023-04-26T06:31:34.781Z,186.00
2023-04-26T06:32:41.531Z,173.43
2023-04-26T06:33:46.287Z,216.95
2023-04-26T06:34:48.457Z,209.57
2023-04-26T06:35:53.252Z,213.52
2023-04-26T06:38:52.990Z,261.08
2023-04-26T06:39:55.115Z,178.98
2023-04-26T06:40:59.847Z,193.77
2023-04-26T06:42:04.909Z,186.75
2023-04-26T06:43:07.153Z,194.73
2023-04-26T06:44:12.053Z,370.02
2023-04-26T06:45:17.254Z,171.20
2023-04-26T06:46:22.088Z,186.23
2023-04-26T06:47:24.228Z,208.75
2023-04-26T06:48:28.954Z,212.25
2023-04-26T06:49:31.076Z,280.95
2023-04-26T06:50:35.782Z,204.82
2023-04-26T06:51:37.904Z,221.98
2023-04-26T06:52:42.602Z,289.73
2023-04-26T06:53:44.698Z,247.82
2023-04-26T06:54:56.998Z,236.07
2023-04-26T06:56:02.399Z,202.93
2023-04-26T06:57:07.242Z,302.63
2023-04-26T06:58:12.161Z,209.85
2023-04-26T06:59:14.229Z,137.07
2023-04-26T07:00:19.604Z,156.60
2023-04-26T07:01:24.347Z,185.95
2023-04-26T07:02:29.175Z,176.20
2023-04-26T07:03:34.583Z,174.55
2023-04-26T07:04:39.710Z,173.60
2023-04-26T07:05:41.968Z,303.35
2023-04-26T07:06:46.662Z,217.55
2023-04-26T07:07:51.494Z,223.63
2023-04-26T07:08:56.241Z,212.18
2023-04-26T07:10:04.164Z,196.35
2023-04-26T07:11:12.960Z,186.02
2023-04-26T07:12:15.367Z,153.07
2023-04-26T07:13:20.023Z,250.60
2023-04-26T07:14:22.162Z,188.77
2023-04-26T07:15:26.840Z,223.25
2023-04-26T07:16:29.017Z,186.23
2023-04-26T07:17:34.059Z,193.70
2023-04-26T07:18:38.810Z,191.15
2023-04-26T07:19:43.591Z,234.77
2023-04-26T07:20:48.311Z,185.30
2023-04-26T07:21:50.599Z,259.63
2023-04-26T07:22:55.288Z,252.02
2023-04-26T07:26:17.159Z,301.67
2023-04-26T07:27:25.017Z,168.88
2023-04-26T07:28:29.756Z,182.77
2023-04-26T07:29:34.457Z,198.25
2023-04-26T07:30:36.657Z,226.45
2023-04-26T07:31:41.855Z,187.68
2023-04-26T07:32:44.026Z,520.92
2023-04-26T07:33:49.238Z,312.90
2023-04-26T07:34:53.994Z,246.73
2023-04-26T07:35:56.853Z,243.45
2023-04-26T07:37:01.763Z,199.07
2023-04-26T07:38:04.509Z,248.13
2023-04-26T07:39:10.530Z,232.50
2023-04-26T07:40:16.670Z,218.13
2023-04-26T07:41:18.736Z,200.00
2023-04-26T07:42:26.007Z,267.98
2023-04-26T07:43:31.258Z,233.07
2023-04-26T07:44:36.014Z,238.40
2023-04-26T07:45:40.797Z,299.73
2023-04-26T07:46:46.210Z,277.63
2023-04-26T07:47:51.036Z,300.25
2023-04-26T07:48:55.678Z,303.02
2023-04-26T07:50:00.332Z,275.45
2023-04-26T07:51:08.350Z,322.40
2023-04-26T07:52:13.389Z,314.83
2023-04-26T07:53:15.561Z,247.95
2023-04-26T07:54:20.466Z,286.83
2023-04-26T07:55:22.686Z,267.75
2023-04-26T07:56:27.548Z,248.50
2023-04-26T07:57:34.883Z,268.63
2023-04-26T07:58:39.310Z,273.17
2023-04-26T07:59:44.094Z,286.35
2023-04-26T08:00:48.863Z,285.45
2023-04-26T08:01:53.835Z,299.23
2023-04-26T08:02:56.140Z,221.05
2023-04-26T08:04:01.603Z,335.63
2023-04-26T08:05:04.591Z,245.35
2023-04-26T08:06:09.986Z,222.90
2023-04-26T08:07:12.087Z,337.67
2023-04-26T08:08:18.906Z,302.58
2023-04-26T08:09:21.589Z,371.02
2023-04-26T08:10:26.515Z,257.73
2023-04-26T08:11:28.698Z,265.17
2023-04-26T08:12:36.400Z,309.98
2023-04-26T08:13:38.719Z,275.52
2023-04-26T08:15:28.417Z,658.90
2023-04-26T08:16:33.176Z,483.70
2023-04-26T08:17:35.358Z,441.30
2023-04-26T08:18:40.092Z,358.73
2023-04-26T08:19:42.311Z,432.40
2023-04-26T08:20:47.039Z,428.70
2023-04-26T08:21:49.156Z,350.10
2023-04-26T08:22:58.402Z,476.45
2023-04-26T08:24:00.614Z,564.83
2023-04-26T08:25:05.903Z,376.15
2023-04-26T08:26:10.631Z,356.75
2023-04-26T08:27:12.734Z,229.10
2023-04-26T08:28:20.056Z,268.70
2023-04-26T08:29:23.759Z,263.38
2023-04-26T08:30:28.433Z,341.42
2023-04-26T08:31:33.550Z,338.42
2023-04-26T08:32:38.713Z,266.20
2023-04-26T08:33:40.941Z,284.55
2023-04-26T08:34:45.609Z,344.90
2023-04-26T08:35:50.305Z,291.85
2023-04-26T08:36:52.462Z,341.13
2023-04-26T08:37:57.231Z,321.23
2023-04-26T08:39:01.905Z,307.48
2023-04-26T08:40:04.985Z,253.07
2023-04-26T08:41:14.627Z,271.77
2023-04-26T08:42:17.913Z,270.30
2023-04-26T08:43:27.602Z,321.35
2023-04-26T08:44:34.548Z,294.98
2023-04-26T08:45:43.727Z,274.95
2023-04-26T08:46:56.333Z,355.38
2023-04-26T08:48:06.650Z,256.50
2023-04-26T08:49:16.580Z,283.83
2023-04-26T08:50:23.956Z,232.00
2023-04-26T08:51:27.646Z,216.65
2023-04-26T08:52:33.946Z,314.42
2023-04-26T08:53:40.129Z,250.77
2023-04-26T08:54:45.057Z,271.23
2023-04-26T08:55:48.624Z,412.33
2023-04-26T08:56:54.614Z,257.10
2023-04-26T08:57:59.623Z,326.95
2023-04-26T08:59:06.948Z,272.17
2023-04-26T09:00:10.670Z,268.38
2023-04-26T09:01:18.158Z,255.75
2023-04-26T09:02:22.754Z,217.32
2023-04-26T09:03:28.460Z,211.70
2023-04-26T09:04:31.827Z,217.23
2023-04-26T09:05:37.529Z,241.40
2023-04-26T09:06:39.877Z,187.70
2023-04-26T09:07:45.937Z,208.80
2023-04-26T09:08:48.594Z,230.05
2023-04-26T09:09:53.655Z,270.90
2023-04-26T09:10:58.335Z,297.33
2023-04-26T09:12:01.872Z,273.63
2023-04-26T09:13:06.603Z,265.75
2023-04-26T09:14:11.289Z,275.27
2023-04-26T09:15:18.286Z,366.23
2023-04-26T09:16:20.477Z,328.67
2023-04-26T09:17:29.624Z,280.75
2023-04-26T09:18:34.363Z,266.50
2023-04-26T09:19:37.692Z,298.02
2023-04-26T09:20:42.746Z,226.38
2023-04-26T09:21:48.305Z,337.88
2023-04-26T09:22:54.797Z,348.25
2023-04-26T09:24:04.651Z,305.67
2023-04-26T09:25:10.799Z,284.77
2023-04-26T09:26:16.481Z,234.32
2023-04-26T09:27:22.204Z,248.82
2023-04-26T09:28:27.645Z,421.83
2023-04-26T09:29:32.336Z,389.85
2023-04-26T09:30:42.280Z,224.88
2023-04-26T09:31:49.314Z,198.57
2023-04-26T09:32:57.451Z,218.30
2023-04-26T09:34:00.353Z,169.85
2023-04-26T09:35:05.034Z,169.52
2023-04-26T09:36:15.868Z,216.05
2023-04-26T09:37:18.024Z,265.10
2023-04-26T09:38:22.702Z,541.83
2023-04-26T09:39:32.976Z,999.65
2023-04-26T09:40:41.174Z,1062.63
2023-04-26T09:41:44.508Z,838.47
2023-04-26T09:42:49.319Z,657.15
2023-04-26T09:43:55.602Z,398.30
2023-04-26T09:45:10.717Z,382.88
2023-04-26T09:46:25.930Z,325.23
2023-04-26T09:47:28.107Z,310.95
2023-04-26T09:48:35.481Z,364.83
2023-04-26T09:49:45.429Z,274.95
2023-04-26T09:50:50.597Z,287.65
2023-04-26T09:52:00.948Z,355.55
2023-04-26T09:53:05.925Z,958.35
2023-04-26T09:54:08.019Z,674.30
2023-04-26T09:55:19.044Z,355.92
2023-04-26T09:56:36.402Z,266.70
2023-04-26T09:57:44.375Z,301.73
2023-04-26T09:59:01.391Z,306.98
2023-04-26T10:00:13.303Z,249.68
2023-04-26T10:01:16.643Z,199.02
2023-04-26T10:02:23.689Z,216.10
2023-04-26T10:03:28.941Z,198.88
2023-04-26T10:04:32.052Z,190.90
2023-04-26T10:05:36.978Z,254.75
2023-04-26T10:06:39.517Z,221.90
2023-04-26T10:07:44.734Z,192.07
2023-04-26T10:08:47.112Z,288.38
2023-04-26T10:09:52.903Z,220.38
2023-04-26T10:10:58.318Z,258.38
2023-04-26T10:12:01.083Z,283.60
2023-04-26T10:13:06.554Z,227.88
2023-04-26T10:14:08.823Z,152.27
2023-04-26T10:15:16.354Z,184.73
2023-04-26T10:16:21.908Z,163.63
2023-04-26T10:17:26.767Z,248.05
2023-04-26T10:18:31.680Z,193.23
2023-04-26T10:19:36.158Z,165.73
2023-04-26T10:20:44.808Z,176.02
2023-04-26T10:21:48.961Z,216.02
2023-04-26T10:23:01.295Z,216.23
2023-04-26T10:24:04.153Z,195.75
2023-04-26T10:25:12.028Z,171.75
2023-04-26T10:26:50.056Z,179.18
2023-04-26T10:27:52.891Z,231.65
2023-04-26T10:29:02.473Z,216.50
2023-04-26T10:30:09.917Z,180.95
2023-04-26T10:31:17.318Z,173.18
2023-04-26T10:32:20.104Z,136.00
2023-04-26T10:33:25.148Z,116.07
2023-04-26T10:34:27.544Z,110.40
2023-04-26T10:35:33.272Z,115.43
2023-04-26T10:37:16.365Z,129.43
2023-04-26T10:38:18.662Z,143.18
2023-04-26T10:39:25.455Z,130.65
2023-04-26T10:40:29.300Z,130.52
2023-04-26T10:41:36.243Z,120.53
2023-04-26T10:42:41.628Z,144.93
2023-04-26T10:43:43.950Z,165.40
2023-04-26T10:44:48.682Z,174.95
2023-04-26T10:45:51.365Z,184.82
2023-04-26T10:46:58.747Z,145.52
2023-04-26T10:48:20.388Z,142.18
2023-04-26T10:49:26.716Z,177.55
2023-04-26T10:50:32.067Z,184.43
2023-04-26T10:51:35.601Z,166.13
2023-04-26T10:54:13.339Z,410.25
2023-04-26T10:55:42.012Z,192.90
2023-04-26T10:56:54.862Z,287.05
2023-04-26T10:58:00.121Z,220.25
2023-04-26T11:02:15.756Z,382.08
2023-04-26T11:03:20.713Z,701.95
2023-04-26T11:04:22.961Z,1079.38
2023-04-26T11:05:51.019Z,1030.53
2023-04-26T11:06:58.106Z,1095.25
2023-04-26T11:08:09.168Z,1173.45
2023-04-26T11:09:39.810Z,1116.47
2023-04-26T11:10:42.567Z,931.60
2023-04-26T11:11:55.837Z,664.05
2023-04-26T11:13:01.830Z,408.20
2023-04-26T11:14:06.573Z,739.67
2023-04-26T11:15:09.641Z,993.45
2023-04-26T11:18:09.464Z,937.75
2023-04-26T11:20:11.652Z,1349.78
2023-04-26T11:21:19.037Z,346.35
2023-04-26T11:22:22.834Z,572.50
2023-04-26T11:23:29.012Z,591.17
2023-04-26T11:24:36.840Z,429.02
2023-04-26T11:25:40.121Z,423.55
2023-04-26T11:26:44.916Z,791.65
2023-04-26T11:27:47.011Z,1134.80
2023-04-26T11:28:52.335Z,1092.40
2023-04-26T11:29:55.204Z,1114.43
2023-04-26T11:30:59.916Z,622.55
2023-04-26T11:32:02.799Z,583.15
2023-04-26T11:33:19.240Z,1027.22
2023-04-26T11:34:23.205Z,1027.53
2023-04-26T11:35:30.033Z,424.15
2023-04-26T11:36:34.941Z,277.35
2023-04-26T11:37:37.100Z,347.38
2023-04-26T11:38:41.854Z,249.50
2023-04-26T11:39:45.853Z,327.75
2023-04-26T11:40:56.382Z,421.25
2023-04-26T11:42:06.004Z,1054.72
2023-04-26T11:43:11.723Z,952.50
2023-04-26T11:44:16.929Z,713.75
2023-04-26T11:45:19.086Z,653.72
2023-04-26T11:46:24.857Z,626.85
2023-04-26T11:47:30.952Z,762.40
2023-04-26T11:48:41.100Z,664.65
2023-04-26T11:49:52.201Z,996.72
2023-04-26T11:50:57.417Z,884.60
2023-04-26T11:52:00.218Z,1017.58
2023-04-26T11:53:07.620Z,830.90
2023-04-26T11:54:09.855Z,872.92
2023-04-26T11:55:15.052Z,1055.15
2023-04-26T11:56:20.789Z,1105.63
2023-04-26T11:57:22.833Z,1091.30
2023-04-26T11:58:27.619Z,1070.22
2023-04-26T11:59:33.786Z,1088.53
2023-04-26T12:00:36.103Z,1086.38
2023-04-26T12:01:40.996Z,1118.30
2023-04-26T12:02:46.717Z,1107.22
2023-04-26T12:03:56.626Z,1126.88
2023-04-26T12:04:59.791Z,1150.50
2023-04-26T12:06:04.948Z,1118.30
2023-04-26T12:07:07.747Z,1090.88
2023-04-26T12:08:13.459Z,1081.25
2023-04-26T12:09:15.707Z,1090.50
2023-04-26T12:10:21.737Z,960.20
2023-04-26T12:11:26.487Z,868.55
2023-04-26T12:12:28.623Z,475.92
2023-04-26T12:13:33.358Z,826.35
2023-04-26T12:14:36.869Z,962.13
2023-04-26T12:15:42.201Z,456.83
2023-04-26T12:16:47.089Z,1129.68
2023-04-26T12:17:53.157Z,934.90
2023-04-26T12:19:00.655Z,718.65
2023-04-26T12:20:10.279Z,528.17
2023-04-26T12:21:14.935Z,483.17
2023-04-26T12:22:24.160Z,749.65
2023-04-26T12:23:27.642Z,803.03
2023-04-26T12:24:35.077Z,1040.07
2023-04-26T12:25:41.212Z,1085.57
2023-04-26T12:26:44.978Z,1110.78
2023-04-26T12:27:49.680Z,1140.63
2023-04-26T12:28:54.334Z,619.20
2023-04-26T12:29:56.348Z,549.75
2023-04-26T12:31:01.698Z,778.90
2023-04-26T12:32:06.792Z,1072.55
2023-04-26T12:33:17.033Z,992.85
2023-04-26T12:36:17.021Z,587.85
2023-04-26T12:37:49.968Z,408.33
2023-04-26T12:38:56.556Z,704.88
2023-04-26T12:39:58.805Z,792.97
2023-04-26T12:41:03.691Z,678.80
2023-04-26T12:42:06.641Z,1025.88
2023-04-26T12:43:11.464Z,1146.00
2023-04-26T12:44:14.586Z,1135.07
2023-04-26T12:45:20.079Z,1145.10
2023-04-26T12:46:22.281Z,1143.50
2023-04-26T12:47:27.236Z,1179.63
2023-04-26T12:48:29.309Z,1101.90
2023-04-26T12:49:33.928Z,1153.75
2023-04-26T12:50:38.728Z,1142.50
2023-04-26T12:51:46.362Z,1102.13
2023-04-26T12:52:51.062Z,944.65
2023-04-26T12:53:56.121Z,734.70
2023-04-26T12:54:58.272Z,712.88
2023-04-26T12:56:03.100Z,743.20
2023-04-26T12:57:06.376Z,1062.57
2023-04-26T12:58:11.388Z,1007.00
2023-04-26T12:59:16.548Z,761.60
2023-04-26T13:00:21.979Z,592.45
2023-04-26T13:01:24.063Z,533.35
2023-04-26T13:02:28.985Z,523.22
2023-04-26T13:03:34.076Z,811.55
2023-04-26T13:04:39.080Z,838.72
2023-04-26T13:06:18.489Z,798.83
2023-04-26T13:07:26.046Z,828.92
2023-04-26T13:08:31.685Z,609.70
2023-04-26T13:09:33.743Z,622.78
2023-04-26T13:10:38.403Z,746.25
2023-04-26T13:11:43.553Z,1139.28
2023-04-26T13:12:48.254Z,496.85
2023-04-26T13:13:50.565Z,327.20
2023-04-26T13:14:55.321Z,381.50
2023-04-26T13:15:57.970Z,359.27
2023-04-26T13:17:03.983Z,314.05
2023-04-26T13:18:08.807Z,300.55
2023-04-26T13:19:11.040Z,354.25
2023-04-26T13:20:16.417Z,285.10
2023-04-26T13:21:18.542Z,374.35
2023-04-26T13:22:25.991Z,272.20
2023-04-26T13:23:30.872Z,327.38
2023-04-26T13:24:32.945Z,325.77
2023-04-26T13:25:37.970Z,593.78
2023-04-26T13:26:40.006Z,424.83
2023-04-26T13:27:44.708Z,733.28
2023-04-26T13:28:47.725Z,598.47
2023-04-26T13:29:52.592Z,624.15
2023-04-26T13:30:57.391Z,891.90
2023-04-26T13:31:59.827Z,725.95
2023-04-26T13:33:05.020Z,402.88
2023-04-26T13:34:07.391Z,246.77
2023-04-26T13:35:12.594Z,231.00
2023-04-26T13:36:15.993Z,839.47
2023-04-26T13:37:21.655Z,1236.65
2023-04-26T13:38:30.167Z,1232.10
2023-04-26T13:39:36.403Z,968.83
2023-04-26T13:40:41.066Z,218.32
2023-04-26T13:41:43.463Z,230.15
2023-04-26T13:42:48.115Z,257.55
2023-04-26T13:43:50.252Z,278.65
2023-04-26T13:44:54.891Z,290.88
2023-04-26T13:45:57.070Z,481.73
2023-04-26T13:47:02.041Z,954.00
2023-04-26T13:48:04.531Z,542.13
2023-04-26T13:49:10.439Z,239.65
2023-04-26T13:50:15.266Z,261.95
2023-04-26T13:51:17.414Z,211.25
2023-04-26T13:52:22.415Z,222.40
2023-04-26T13:53:29.685Z,230.80
2023-04-26T13:54:31.911Z,264.70
2023-04-26T13:55:37.033Z,260.13
2023-04-26T13:56:42.247Z,264.00
2023-04-26T13:57:44.303Z,192.20
2023-04-26T13:58:49.569Z,243.93
2023-04-26T13:59:51.686Z,274.90
2023-04-26T14:00:56.329Z,289.15
2023-04-26T14:01:59.248Z,215.57
2023-04-26T14:03:04.288Z,317.30
2023-04-26T14:04:07.698Z,610.10
2023-04-26T14:05:13.234Z,402.88
2023-04-26T14:06:15.368Z,842.55
2023-04-26T14:07:20.042Z,473.98
2023-04-26T14:08:22.412Z,608.33
2023-04-26T14:09:30.269Z,490.05
2023-04-26T14:10:32.797Z,288.85
2023-04-26T14:11:37.490Z,329.35
2023-04-26T14:12:39.961Z,329.05
2023-04-26T14:13:44.705Z,473.15
2023-04-26T14:14:49.320Z,668.28
2023-04-26T14:15:54.073Z,464.67
2023-04-26T14:16:56.242Z,550.53
2023-04-26T14:18:01.041Z,432.15
2023-04-26T14:19:06.025Z,1076.18
2023-04-26T14:20:10.791Z,436.88
2023-04-26T14:21:15.609Z,529.33
2023-04-26T14:22:20.270Z,845.95
2023-04-26T14:23:24.925Z,854.35
2023-04-26T14:24:32.161Z,974.35
2023-04-26T14:25:34.298Z,422.50
2023-04-26T14:26:38.989Z,808.60
2023-04-26T14:27:41.163Z,855.90
2023-04-26T14:28:45.874Z,725.17
2023-04-26T14:29:50.552Z,748.92
2023-04-26T14:30:52.596Z,821.00
2023-04-26T14:31:57.235Z,635.30
2023-04-26T14:33:02.023Z,569.40
2023-04-26T14:34:06.894Z,239.93
2023-04-26T14:35:19.732Z,446.10
2023-04-26T14:36:24.401Z,255.75
2023-04-26T14:37:26.594Z,284.55
2023-04-26T14:38:31.285Z,303.40
2023-04-26T14:39:35.983Z,490.48
2023-04-26T14:40:40.862Z,1262.05
2023-04-26T14:41:43.423Z,1003.78
2023-04-26T14:42:48.491Z,1096.25
2023-04-26T14:43:53.431Z,1117.97
2023-04-26T14:44:55.533Z,1157.70
2023-04-26T14:46:00.187Z,1275.25
2023-04-26T14:47:02.363Z,1387.13
2023-04-26T14:48:07.800Z,1191.90
2023-04-26T14:49:09.964Z,1269.47
2023-04-26T14:50:14.667Z,1266.18
2023-04-26T14:51:16.666Z,1008.28
2023-04-26T14:52:21.328Z,795.55
2023-04-26T14:53:23.423Z,762.25
2023-04-26T14:54:28.136Z,687.33
2023-04-26T14:55:32.895Z,496.48
2023-04-26T14:56:37.603Z,1120.90
2023-04-26T14:57:40.922Z,1150.40
2023-04-26T14:58:45.634Z,1207.35
2023-04-26T14:59:48.302Z,1137.25
2023-04-26T15:00:53.440Z,786.70
2023-04-26T15:01:55.892Z,1068.75
2023-04-26T15:03:01.612Z,963.85
2023-04-26T15:04:04.063Z,768.30
2023-04-26T15:05:10.711Z,572.17
2023-04-26T15:06:12.745Z,807.78
2023-04-26T15:07:30.749Z,1139.03
2023-04-26T15:08:37.357Z,953.20
2023-04-26T15:09:39.390Z,1249.50
2023-04-26T15:10:46.892Z,573.33
2023-04-26T15:11:48.902Z,987.08
2023-04-26T15:12:53.943Z,1010.55
2023-04-26T15:13:55.968Z,735.45
2023-04-26T15:15:00.708Z,784.78
2023-04-26T15:16:08.079Z,743.10
2023-04-26T15:17:10.374Z,657.38
2023-04-26T15:18:15.086Z,852.70
2023-04-26T15:19:17.691Z,777.35
2023-04-26T15:20:22.548Z,776.40
2023-04-26T15:21:24.793Z,961.17
2023-04-26T15:22:29.450Z,926.72
2023-04-26T15:23:31.572Z,960.78
2023-04-26T15:24:46.384Z,1181.75
2023-04-26T15:25:53.639Z,1173.65
2023-04-26T15:26:55.899Z,1158.68
2023-04-26T15:28:03.190Z,1116.15
2023-04-26T15:29:05.312Z,992.08
2023-04-26T15:30:11.687Z,1182.22
2023-04-26T15:31:16.530Z,1187.05
2023-04-26T15:32:18.754Z,1226.32
2023-04-26T15:33:26.712Z,1264.40
2023-04-26T15:34:30.275Z,1241.30
2023-04-26T15:35:35.201Z,1162.15
2023-04-26T15:36:37.766Z,1218.90
2023-04-26T15:37:42.411Z,1142.45
2023-04-26T15:38:48.860Z,1218.40
2023-04-26T15:39:51.539Z,1164.65
2023-04-26T15:40:58.794Z,1143.82
2023-04-26T15:42:01.043Z,1165.90
2023-04-26T15:43:05.702Z,1007.13
2023-04-26T15:44:07.994Z,1123.63
2023-04-26T15:45:13.694Z,1128.28
2023-04-26T15:46:18.373Z,1127.28
2023-04-26T15:47:20.589Z,1303.85
2023-04-26T15:48:26.193Z,1150.63
2023-04-26T15:49:31.322Z,1189.65
2023-04-26T15:50:39.383Z,1253.65
2023-04-26T15:51:43.985Z,1198.07
2023-04-26T15:52:48.650Z,1276.43
2023-04-26T15:53:53.730Z,1331.70
2023-04-26T15:54:55.761Z,1232.85
2023-04-26T15:56:07.050Z,1217.07
2023-04-26T15:57:09.216Z,1187.32
2023-04-26T15:58:16.978Z,1192.47
2023-04-26T15:59:19.367Z,1217.40
2023-04-26T16:00:24.287Z,1262.75
2023-04-26T16:01:26.671Z,1289.68
2023-04-26T16:02:31.369Z,1188.18
2023-04-26T16:03:33.865Z,1276.28
2023-04-26T16:04:38.776Z,1002.70
2023-04-26T16:05:40.975Z,1030.70
2023-04-26T16:06:54.964Z,1006.10
2023-04-26T16:07:59.867Z,1167.93
2023-04-26T16:10:27.914Z,960.28
2023-04-26T16:11:32.500Z,983.00
2023-04-26T16:12:39.772Z,1302.72
2023-04-26T16:13:42.605Z,1208.40
2023-04-26T16:14:49.232Z,1199.88
2023-04-26T16:15:52.502Z,1084.97
2023-04-26T16:16:57.856Z,1102.28
2023-04-26T16:18:00.854Z,1278.65
2023-04-26T16:19:05.940Z,1254.40
2023-04-26T16:20:12.463Z,1335.93
2023-04-26T16:21:14.593Z,1235.82
2023-04-26T16:22:19.261Z,1201.20
2023-04-26T16:23:21.877Z,1232.90
2023-04-26T16:24:26.712Z,1199.00
2023-04-26T16:25:31.897Z,1347.82
2023-04-26T16:26:36.702Z,1259.95
2023-04-26T16:27:41.406Z,1217.55
2023-04-26T16:28:44.028Z,1263.20
2023-04-26T16:29:49.201Z,1246.13
2023-04-26T16:30:51.482Z,1204.43
2023-04-26T16:31:57.003Z,1139.40
2023-04-26T16:33:02.186Z,1332.40
2023-04-26T16:34:04.338Z,867.72
2023-04-26T16:35:09.987Z,1060.28
2023-04-26T16:36:12.509Z,1393.20
2023-04-26T16:37:17.287Z,1410.75
2023-04-26T16:38:23.272Z,1791.95
2023-04-26T16:39:28.848Z,1268.28
2023-04-26T16:40:31.030Z,1272.85
2023-04-26T16:41:35.878Z,1393.43
2023-04-26T16:42:44.657Z,1261.72
2023-04-26T16:43:49.777Z,941.65
2023-04-26T16:44:54.385Z,733.35
2023-04-26T16:46:00.459Z,860.63
2023-04-26T16:47:05.116Z,929.90
2023-04-26T16:48:07.267Z,713.42
2023-04-26T16:49:12.188Z,649.42
2023-04-26T16:50:17.006Z,644.58
2023-04-26T16:51:19.096Z,538.90
2023-04-26T16:52:24.164Z,251.88
2023-04-26T16:53:26.391Z,299.70
2023-04-26T16:54:31.566Z,562.17
2023-04-26T16:55:33.862Z,504.70
2023-04-26T16:56:38.836Z,575.42
2023-04-26T16:57:43.572Z,519.42
2023-04-26T16:58:48.236Z,372.90
2023-04-26T16:59:50.441Z,277.05
2023-04-26T17:00:55.468Z,283.42
2023-04-26T17:02:00.305Z,373.15
2023-04-26T17:03:02.610Z,573.50
2023-04-26T17:04:08.599Z,694.33
2023-04-26T17:05:14.726Z,1219.28
2023-04-26T17:06:16.796Z,1244.28
2023-04-26T17:07:22.288Z,1135.15
2023-04-26T17:08:27.471Z,1059.07
2023-04-26T17:09:32.157Z,504.05
2023-04-26T17:10:35.366Z,352.77
2023-04-26T17:11:43.644Z,412.17
2023-04-26T17:12:48.364Z,310.38
2023-04-26T17:13:53.077Z,237.32
2023-04-26T17:14:56.740Z,221.32
2023-04-26T17:16:01.950Z,542.00
2023-04-26T17:17:06.649Z,1055.22
2023-04-26T17:18:10.345Z,1148.50
2023-04-26T17:19:15.033Z,857.78
2023-04-26T17:20:17.074Z,511.77
2023-04-26T17:21:21.739Z,292.20
2023-04-26T17:22:23.836Z,209.02
2023-04-26T17:23:28.665Z,234.20
2023-04-26T17:24:33.254Z,247.00
2023-04-26T17:25:35.272Z,232.95
2023-04-26T17:26:40.071Z,256.23
2023-04-26T17:27:42.202Z,241.50
2023-04-26T17:28:49.422Z,278.00
2023-04-26T17:29:51.544Z,330.65
2023-04-26T17:30:56.252Z,296.00
2023-04-26T17:31:58.322Z,287.60
2023-04-26T17:33:03.038Z,365.77
2023-04-26T17:34:05.216Z,318.48
2023-04-26T17:35:10.487Z,303.25
2023-04-26T17:36:15.090Z,328.83
2023-04-26T17:37:17.156Z,289.63
2023-04-26T17:38:21.975Z,503.95
2023-04-26T17:39:24.067Z,347.60
2023-04-26T17:40:28.683Z,372.48
2023-04-26T17:41:30.824Z,507.05
2023-04-26T17:42:43.185Z,440.77
2023-04-26T17:43:50.478Z,662.00
2023-04-26T17:44:52.518Z,793.15
2023-04-26T17:45:57.418Z,903.03
2023-04-26T17:46:59.493Z,565.95
2023-04-26T17:48:04.452Z,615.67
2023-04-26T17:49:08.324Z,991.70
2023-04-26T17:50:14.026Z,554.17
2023-04-26T17:51:16.344Z,597.65
2023-04-26T17:52:21.075Z,497.58
2023-04-26T17:53:26.634Z,517.65
2023-04-26T17:54:28.834Z,467.13
2023-04-26T17:55:33.717Z,500.83
2023-04-26T17:56:38.449Z,362.88
2023-04-26T17:57:41.228Z,326.77
2023-04-26T17:58:46.029Z,387.02
2023-04-26T17:59:51.334Z,251.25
2023-04-26T18:00:56.067Z,257.80
2023-04-26T18:02:02.080Z,232.05
2023-04-26T18:03:07.308Z,323.48
2023-04-26T18:04:09.879Z,348.00
2023-04-26T18:05:15.553Z,258.63
2023-04-26T18:06:21.254Z,231.10
2023-04-26T18:07:24.138Z,202.43
2023-04-26T18:08:28.906Z,199.48
2023-04-26T18:09:31.424Z,226.48
2023-04-26T18:10:36.246Z,218.38
2023-04-26T18:11:40.931Z,220.95
2023-04-26T18:12:43.032Z,325.40
2023-04-26T18:13:48.152Z,199.77
2023-04-26T18:14:52.857Z,189.18
2023-04-26T18:15:57.982Z,300.92
2023-04-26T18:17:01.165Z,276.10
2023-04-26T18:18:08.148Z,274.95
2023-04-26T18:19:10.430Z,298.38
2023-04-26T18:20:16.719Z,342.75
2023-04-26T18:21:18.816Z,294.25
2023-04-26T18:22:23.558Z,210.43
2023-04-26T18:23:28.245Z,269.85
2023-04-26T18:24:32.901Z,259.75
2023-04-26T18:25:37.513Z,276.65
2023-04-26T18:26:41.163Z,302.75
2023-04-26T18:27:45.946Z,323.90
2023-04-26T18:28:48.154Z,220.57
2023-04-26T18:29:58.428Z,302.52
2023-04-26T18:31:01.117Z,330.08
2023-04-26T18:32:05.898Z,274.13
2023-04-26T18:33:23.951Z,356.80
2023-04-26T18:34:28.832Z,283.73
2023-04-26T18:35:33.537Z,338.38
2023-04-26T18:36:36.218Z,262.58